createdAt,value
2019-05-05T00:00:14.363Z,98.80
2019-05-05T00:02:56.249Z,98.80
2019-05-05T00:05:28.044Z,98.80
2019-05-05T00:07:55.740Z,99.00
2019-05-05T00:10:30.839Z,98.80
2019-05-05T00:13:10.172Z,98.80
2019-05-05T00:15:55.875Z,98.80
2019-05-05T00:18:26.850Z,98.80
2019-05-05T00:20:55.196Z,98.80
2019-05-05T00:23:24.933Z,98.70
2019-05-05T00:25:52.418Z,98.60
2019-05-05T00:28:19.714Z,98.60
2019-05-05T00:30:47.229Z,98.70
2019-05-05T00:33:14.637Z,99.30
2019-05-05T00:35:42.206Z,98.60
2019-05-05T00:38:10.013Z,98.60
2019-05-05T00:40:37.420Z,98.60
2019-05-05T00:43:05.418Z,98.60
2019-05-05T00:45:34.458Z,98.70
2019-05-05T00:48:09.342Z,98.70
2019-05-05T00:50:36.680Z,98.70
2019-05-05T00:53:05.421Z,98.80
2019-05-05T00:55:34.869Z,98.80
2019-05-05T00:58:02.438Z,98.80
2019-05-05T01:00:44.534Z,98.90
2019-05-05T01:03:12.009Z,99.00
2019-05-05T01:05:59.618Z,98.90
2019-05-05T01:08:28.384Z,99.00
2019-05-05T01:10:56.577Z,99.00
2019-05-05T01:13:24.546Z,99.00
2019-05-05T01:15:54.113Z,99.00
2019-05-05T01:18:21.782Z,99.10
2019-05-05T01:20:49.225Z,99.00
2019-05-05T01:23:16.564Z,99.10
2019-05-05T01:25:45.500Z,99.10
2019-05-05T01:28:14.359Z,99.10
2019-05-05T01:30:45.925Z,99.00
2019-05-05T01:33:30.010Z,99.00
2019-05-05T01:35:57.566Z,99.00
2019-05-05T01:38:34.119Z,98.90
2019-05-05T01:41:09.962Z,99.00
2019-05-05T01:43:37.362Z,99.00
2019-05-05T01:46:05.110Z,99.00
2019-05-05T01:48:32.692Z,99.10
2019-05-05T01:51:00.176Z,99.10
2019-05-05T01:53:27.619Z,99.10
2019-05-05T01:55:56.141Z,99.30
2019-05-05T01:58:24.424Z,99.40
2019-05-05T02:00:54.548Z,99.20
2019-05-05T02:03:24.329Z,99.20
2019-05-05T02:05:51.757Z,99.30
2019-05-05T02:08:19.120Z,99.30
2019-05-05T02:10:47.357Z,99.40
2019-05-05T02:13:16.078Z,99.20
2019-05-05T02:15:44.606Z,99.20
2019-05-05T02:18:14.908Z,99.30
2019-05-05T02:21:00.426Z,99.50
2019-05-05T02:23:28.569Z,99.50
2019-05-05T02:25:58.121Z,99.50
2019-05-05T02:28:27.983Z,99.40
2019-05-05T02:31:25.532Z,99.30
2019-05-05T02:33:56.590Z,99.30
2019-05-05T02:36:25.845Z,99.30
2019-05-05T02:38:52.247Z,99.30
2019-05-05T02:41:20.349Z,99.30
2019-05-05T02:43:48.138Z,99.10
2019-05-05T02:46:26.650Z,99.00
2019-05-05T02:48:56.174Z,99.10
2019-05-05T02:51:25.717Z,99.10
2019-05-05T02:53:55.174Z,99.10
2019-05-05T02:56:28.913Z,99.20
2019-05-05T02:58:59.418Z,99.20
2019-05-05T03:01:35.524Z,99.10
2019-05-05T03:04:04.898Z,99.10
2019-05-05T03:06:34.303Z,99.10
2019-05-05T03:09:04.888Z,99.10
2019-05-05T03:11:34.354Z,99.20
2019-05-05T03:14:05.192Z,99.50
2019-05-05T03:16:37.458Z,99.20
2019-05-05T03:19:06.546Z,99.30
2019-05-05T03:21:34.267Z,99.50
2019-05-05T03:24:03.608Z,99.50
2019-05-05T03:26:34.007Z,99.50
2019-05-05T03:29:04.904Z,99.60
2019-05-05T03:31:35.181Z,99.60
2019-05-05T03:34:05.550Z,99.70
2019-05-05T03:36:33.905Z,99.80
2019-05-05T03:39:05.192Z,99.80
2019-05-05T03:41:41.082Z,99.90
2019-05-05T03:44:17.959Z,99.90
2019-05-05T03:46:45.532Z,99.90
2019-05-05T03:49:13.970Z,99.90
2019-05-05T03:51:43.737Z,99.90
2019-05-05T03:54:11.879Z,99.90
2019-05-05T03:56:40.006Z,99.90
2019-05-05T03:59:09.395Z,99.90
2019-05-05T04:01:46.775Z,99.90
2019-05-05T04:04:33.573Z,99.90
2019-05-05T04:07:01.425Z,99.90
2019-05-05T04:09:29.100Z,99.90
2019-05-05T04:11:56.515Z,99.90
2019-05-05T04:14:24.947Z,99.90
2019-05-05T04:17:07.153Z,99.90
2019-05-05T04:19:36.151Z,99.90
2019-05-05T04:22:04.246Z,99.90
2019-05-05T04:24:34.024Z,99.90
2019-05-05T04:27:01.194Z,99.90
2019-05-05T04:29:28.524Z,99.90
2019-05-05T04:31:56.544Z,99.90
2019-05-05T04:34:24.161Z,99.90
2019-05-05T04:36:51.563Z,99.90
2019-05-05T04:39:19.056Z,99.90
2019-05-05T04:41:46.512Z,99.90
2019-05-05T04:44:17.910Z,99.90
2019-05-05T04:46:47.243Z,99.90
2019-05-05T04:49:37.547Z,99.90
2019-05-05T04:52:08.399Z,99.90
2019-05-05T04:54:55.709Z,99.90
2019-05-05T04:57:24.024Z,99.90
2019-05-05T04:59:54.052Z,99.90
2019-05-05T05:02:47.589Z,99.90
2019-05-05T05:05:24.781Z,99.90
2019-05-05T05:07:54.207Z,99.90
2019-05-05T05:10:23.931Z,99.90
2019-05-05T05:12:53.884Z,99.90
2019-05-05T05:15:23.436Z,99.90
2019-05-05T05:18:04.184Z,99.90
2019-05-05T05:20:33.849Z,99.90
2019-05-05T05:23:01.124Z,99.90
2019-05-05T05:25:28.461Z,99.90
2019-05-05T05:27:56.878Z,99.90
2019-05-05T05:30:24.393Z,99.90
2019-05-05T05:32:53.733Z,99.90
2019-05-05T05:35:21.218Z,99.90
2019-05-05T05:37:49.142Z,99.90
2019-05-05T05:40:23.653Z,99.90
2019-05-05T05:42:51.394Z,99.90
2019-05-05T05:45:37.762Z,99.90
2019-05-05T05:48:23.744Z,99.90
2019-05-05T05:50:56.873Z,99.90
2019-05-05T05:53:24.570Z,99.90
2019-05-05T05:55:53.785Z,99.90
2019-05-05T05:58:21.290Z,99.90
2019-05-05T06:00:49.314Z,99.90
2019-05-05T06:03:16.603Z,99.90
2019-05-05T06:05:44.189Z,99.90
2019-05-05T06:08:13.929Z,99.90
2019-05-05T06:10:41.381Z,99.90
2019-05-05T06:13:08.787Z,99.90
2019-05-05T06:15:36.278Z,99.90
2019-05-05T06:18:04.613Z,99.90
2019-05-05T06:20:34.168Z,99.90
2019-05-05T06:23:03.905Z,99.90
2019-05-05T06:25:34.226Z,99.90
2019-05-05T06:28:04.043Z,99.90
2019-05-05T06:30:30.857Z,99.90
2019-05-05T06:32:58.229Z,99.90
2019-05-05T06:35:25.636Z,99.90
2019-05-05T06:37:54.288Z,99.90
2019-05-05T06:40:34.098Z,99.90
2019-05-05T06:43:13.865Z,99.90
2019-05-05T06:45:46.437Z,99.90
2019-05-05T06:48:13.857Z,99.90
2019-05-05T06:50:41.221Z,99.90
2019-05-05T06:53:08.529Z,99.90
2019-05-05T06:55:35.975Z,99.90
2019-05-05T06:58:04.614Z,99.90
2019-05-05T07:00:32.017Z,99.90
2019-05-05T07:02:59.334Z,99.90
2019-05-05T07:05:26.690Z,99.90
2019-05-05T07:07:54.092Z,99.90
2019-05-05T07:10:21.542Z,99.90
2019-05-05T07:12:48.993Z,99.90
2019-05-05T07:15:16.945Z,99.90
2019-05-05T07:17:44.527Z,99.90
2019-05-05T07:20:13.596Z,99.90
2019-05-05T07:22:41.257Z,99.90
2019-05-05T07:25:13.750Z,99.90
2019-05-05T07:27:41.561Z,99.90
2019-05-05T07:30:10.988Z,99.90
2019-05-05T07:32:38.388Z,99.90
2019-05-05T07:35:11.950Z,99.90
2019-05-05T07:37:43.549Z,99.90
2019-05-05T07:40:10.843Z,99.90
2019-05-05T07:42:38.379Z,99.90
2019-05-05T07:45:19.295Z,99.90
2019-05-05T07:47:37.017Z,99.90
2019-05-05T07:50:05.058Z,99.90
2019-05-05T07:52:34.295Z,99.90
2019-05-05T07:55:03.601Z,99.90
2019-05-05T07:57:31.034Z,99.90
2019-05-05T07:59:58.391Z,99.90
2019-05-05T08:02:25.784Z,99.90
2019-05-05T08:04:54.542Z,99.90
2019-05-05T08:07:23.896Z,99.90
2019-05-05T08:09:51.267Z,99.90
2019-05-05T08:12:18.722Z,99.90
2019-05-05T08:14:46.554Z,99.90
2019-05-05T08:17:25.621Z,99.90
2019-05-05T08:20:00.884Z,99.90
2019-05-05T08:22:28.339Z,99.90
2019-05-05T08:25:33.600Z,99.90
2019-05-05T08:27:56.830Z,99.90
2019-05-05T08:30:48.325Z,99.90
2019-05-05T08:33:15.668Z,99.90
2019-05-05T08:35:44.870Z,99.90
2019-05-05T08:38:13.771Z,99.90
2019-05-05T08:40:41.301Z,99.90
2019-05-05T08:43:09.587Z,99.90
2019-05-05T08:45:37.018Z,99.90
2019-05-05T08:48:05.138Z,99.90
2019-05-05T08:50:34.627Z,99.90
2019-05-05T08:53:01.815Z,99.90
2019-05-05T08:55:29.228Z,99.90
2019-05-05T08:57:56.541Z,99.90
2019-05-05T09:00:24.537Z,99.90
2019-05-05T09:02:54.170Z,99.90
2019-05-05T09:05:23.667Z,99.90
2019-05-05T09:07:50.617Z,99.90
2019-05-05T09:10:18.176Z,99.90
2019-05-05T09:12:45.566Z,99.90
2019-05-05T09:15:13.692Z,99.90
2019-05-05T09:17:43.787Z,99.90
2019-05-05T09:20:10.809Z,99.90
2019-05-05T09:23:00.844Z,99.90
2019-05-05T09:25:54.671Z,99.90
2019-05-05T09:28:29.429Z,99.90
2019-05-05T09:30:57.766Z,99.90
2019-05-05T09:33:37.948Z,99.90
2019-05-05T09:36:09.836Z,99.90
2019-05-05T09:38:38.468Z,99.90
2019-05-05T09:41:06.877Z,99.90
2019-05-05T09:43:34.596Z,99.90
2019-05-05T09:46:03.908Z,99.90
2019-05-05T09:48:33.588Z,99.90
2019-05-05T09:51:05.414Z,99.90
2019-05-05T09:53:34.672Z,99.90
2019-05-05T09:56:04.173Z,99.90
2019-05-05T09:58:34.852Z,99.90
2019-05-05T10:01:04.875Z,99.90
2019-05-05T10:03:34.078Z,99.90
2019-05-05T10:06:04.689Z,99.90
2019-05-05T10:08:31.613Z,99.90
2019-05-05T10:10:59.233Z,99.90
2019-05-05T10:13:26.864Z,99.90
2019-05-05T10:15:54.938Z,99.90
2019-05-05T10:18:22.583Z,99.80
2019-05-05T10:20:49.940Z,99.80
2019-05-05T10:23:17.404Z,99.80
2019-05-05T10:25:50.059Z,99.70
2019-05-05T10:28:18.151Z,99.60
2019-05-05T10:30:46.050Z,99.70
2019-05-05T10:33:14.231Z,99.60
2019-05-05T10:35:43.733Z,99.90
2019-05-05T10:38:14.272Z,99.80
2019-05-05T10:40:41.934Z,99.90
2019-05-05T10:43:09.734Z,99.90
2019-05-05T10:45:37.109Z,99.80
2019-05-05T10:48:04.761Z,99.70
2019-05-05T10:50:34.142Z,99.60
2019-05-05T10:53:04.271Z,99.50
2019-05-05T10:55:31.524Z,99.60
2019-05-05T10:58:00.989Z,99.60
2019-05-05T11:00:52.114Z,99.60
2019-05-05T11:03:19.551Z,99.60
2019-05-05T11:05:47.542Z,99.50
2019-05-05T11:08:15.448Z,99.40
2019-05-05T11:10:45.029Z,99.30
2019-05-05T11:13:12.863Z,99.20
2019-05-05T11:15:40.421Z,98.90
2019-05-05T11:18:08.199Z,98.50
2019-05-05T11:20:35.873Z,98.50
2019-05-05T11:23:11.634Z,98.40
2019-05-05T11:25:39.087Z,98.40
2019-05-05T11:28:08.381Z,98.40
2019-05-05T11:30:39.733Z,98.50
2019-05-05T11:33:19.477Z,98.50
2019-05-05T11:36:18.651Z,98.30
2019-05-05T11:38:46.279Z,98.30
2019-05-05T11:41:14.396Z,98.20
2019-05-05T11:43:42.084Z,98.40
2019-05-05T11:46:09.526Z,98.30
2019-05-05T11:48:36.953Z,98.20
2019-05-05T11:51:04.674Z,98.20
2019-05-05T11:53:33.982Z,98.10
2019-05-05T11:56:05.796Z,98.10
2019-05-05T11:58:34.075Z,98.10
2019-05-05T12:01:03.598Z,98.20
2019-05-05T12:03:31.086Z,98.20
2019-05-05T12:06:00.349Z,98.10
2019-05-05T12:08:31.241Z,98.00
2019-05-05T12:11:00.009Z,97.80
2019-05-05T12:13:28.496Z,97.70
2019-05-05T12:16:00.764Z,97.60
2019-05-05T12:18:29.063Z,97.70
2019-05-05T12:20:56.593Z,97.80
2019-05-05T12:23:23.984Z,97.80
2019-05-05T12:26:04.549Z,97.80
2019-05-05T12:28:36.606Z,97.70
2019-05-05T12:31:07.550Z,97.70
2019-05-05T12:33:35.749Z,97.90
2019-05-05T12:36:06.386Z,97.90
2019-05-05T12:38:35.175Z,97.70
2019-05-05T12:41:04.268Z,97.70
2019-05-05T12:43:34.081Z,97.70
2019-05-05T12:46:10.526Z,97.80
2019-05-05T12:48:39.079Z,97.70
2019-05-05T12:51:07.172Z,97.80
2019-05-05T12:53:36.484Z,97.80
2019-05-05T12:56:04.446Z,97.80
2019-05-05T12:58:33.585Z,97.70
2019-05-05T13:01:09.266Z,97.90
2019-05-05T13:03:36.770Z,97.80
2019-05-05T13:06:04.502Z,97.70
2019-05-05T13:08:34.038Z,97.80
2019-05-05T13:11:03.954Z,97.80
2019-05-05T13:13:34.586Z,97.60
2019-05-05T13:16:04.341Z,97.40
2019-05-05T13:18:33.796Z,97.40
2019-05-05T13:21:18.874Z,97.20
2019-05-05T13:23:58.522Z,97.10
2019-05-05T13:26:32.599Z,97.10
2019-05-05T13:29:00.731Z,97.00
2019-05-05T13:31:29.339Z,97.00
2019-05-05T13:33:57.047Z,97.00
2019-05-05T13:36:24.544Z,97.10
2019-05-05T13:38:54.480Z,97.20
2019-05-05T13:41:22.102Z,97.20
2019-05-05T13:43:50.045Z,97.30
2019-05-05T13:46:24.746Z,96.90
2019-05-05T13:48:53.928Z,96.80
2019-05-05T13:51:21.532Z,96.90
2019-05-05T13:53:50.149Z,96.90
2019-05-05T13:56:18.322Z,96.80
2019-05-05T13:58:45.984Z,96.80
2019-05-05T14:01:14.452Z,96.80
2019-05-05T14:03:44.735Z,96.60
2019-05-05T14:06:13.780Z,96.70
2019-05-05T14:08:41.562Z,96.70
2019-05-05T14:11:08.967Z,96.70
2019-05-05T14:13:36.503Z,96.60
2019-05-05T14:16:04.084Z,96.60
2019-05-05T14:18:31.625Z,96.80
2019-05-05T14:20:59.168Z,96.60
2019-05-05T14:23:27.647Z,96.70
2019-05-05T14:25:55.449Z,96.80
2019-05-05T14:28:23.453Z,96.80
2019-05-05T14:31:10.231Z,96.90
2019-05-05T14:33:49.402Z,96.80
2019-05-05T14:36:24.882Z,96.80
2019-05-05T14:38:55.139Z,96.70
2019-05-05T14:41:22.449Z,96.60
2019-05-05T14:43:50.276Z,96.60
2019-05-05T14:46:19.002Z,96.50
2019-05-05T14:48:48.140Z,95.90
2019-05-05T14:51:16.349Z,95.80
2019-05-05T14:53:47.002Z,96.10
2019-05-05T14:56:14.986Z,96.50
2019-05-05T14:58:43.828Z,96.50
2019-05-05T15:01:11.364Z,96.50
2019-05-05T15:03:38.893Z,96.70
2019-05-05T15:06:19.682Z,96.80
2019-05-05T15:09:09.701Z,97.00
2019-05-05T15:11:49.995Z,97.20
2019-05-05T15:14:17.767Z,97.60
2019-05-05T15:16:45.150Z,97.50
2019-05-05T15:19:14.410Z,97.50
2019-05-05T15:21:44.151Z,97.40
2019-05-05T15:24:13.862Z,97.50
2019-05-05T15:26:51.169Z,97.40
2019-05-05T15:29:10.791Z,97.60
2019-05-05T15:31:38.758Z,97.70
2019-05-05T15:34:06.186Z,97.70
2019-05-05T15:36:34.669Z,98.20
2019-05-05T15:39:06.393Z,98.10
2019-05-05T15:41:35.999Z,98.10
2019-05-05T15:44:04.746Z,98.20
2019-05-05T15:46:33.746Z,98.20
2019-05-05T15:49:04.207Z,98.20
2019-05-05T15:51:34.386Z,98.30
2019-05-05T15:54:03.929Z,98.40
2019-05-05T15:56:33.886Z,98.50
2019-05-05T15:59:01.181Z,98.80
2019-05-05T16:01:29.111Z,98.80
2019-05-05T16:03:56.607Z,98.90
2019-05-05T16:06:24.123Z,99.10
2019-05-05T16:08:54.469Z,99.10
2019-05-05T16:11:23.250Z,99.20
2019-05-05T16:13:51.390Z,99.20
2019-05-05T16:16:41.239Z,99.10
2019-05-05T16:19:30.918Z,99.20
2019-05-05T16:22:03.927Z,99.10
2019-05-05T16:24:36.546Z,98.80
2019-05-05T16:27:12.198Z,98.90
2019-05-05T16:29:33.673Z,98.30
2019-05-05T16:32:05.473Z,98.10
2019-05-05T16:34:33.949Z,98.30
2019-05-05T16:37:03.694Z,98.20
2019-05-05T16:39:31.045Z,98.30
2019-05-05T16:41:58.616Z,98.40
2019-05-05T16:44:26.223Z,98.40
2019-05-05T16:46:54.056Z,98.20
2019-05-05T16:49:23.294Z,98.30
2019-05-05T16:52:05.303Z,98.50
2019-05-05T16:54:38.147Z,98.80
2019-05-05T16:57:05.919Z,99.00
2019-05-05T16:59:34.130Z,99.00
2019-05-05T17:02:01.684Z,98.90
2019-05-05T17:04:29.103Z,99.00
2019-05-05T17:07:00.561Z,99.00
2019-05-05T17:09:28.753Z,98.90
2019-05-05T17:12:08.210Z,98.90
2019-05-05T17:14:48.663Z,99.00
2019-05-05T17:17:26.052Z,99.10
2019-05-05T17:20:01.703Z,99.10
2019-05-05T17:22:36.115Z,99.00
2019-05-05T17:25:06.856Z,99.00
2019-05-05T17:27:47.128Z,99.10
2019-05-05T17:30:05.554Z,99.30
2019-05-05T17:32:34.815Z,99.40
2019-05-05T17:35:03.833Z,99.50
2019-05-05T17:37:33.537Z,99.50
2019-05-05T17:40:11.396Z,99.50
2019-05-05T17:43:07.100Z,99.70
2019-05-05T17:45:54.961Z,99.90
2019-05-05T17:48:35.225Z,99.90
2019-05-05T17:51:25.763Z,99.90
2019-05-05T17:54:15.602Z,99.90
2019-05-05T17:56:43.115Z,99.90
2019-05-05T17:59:10.505Z,99.90
2019-05-05T18:01:37.955Z,99.40
2019-05-05T18:04:05.405Z,99.30
2019-05-05T18:06:44.098Z,99.20
2019-05-05T18:09:45.102Z,99.10
2019-05-05T18:12:23.784Z,98.80
2019-05-05T18:14:53.673Z,98.60
2019-05-05T18:17:21.324Z,99.00
2019-05-05T18:19:49.840Z,99.10
2019-05-05T18:22:17.420Z,99.20
2019-05-05T18:24:44.967Z,99.30
2019-05-05T18:27:14.068Z,99.50
2019-05-05T18:29:43.600Z,99.60
2019-05-05T18:32:11.451Z,99.90
2019-05-05T18:34:38.885Z,99.80
2019-05-05T18:37:07.287Z,99.90
2019-05-05T18:39:35.771Z,99.90
2019-05-05T18:42:13.962Z,99.90
2019-05-05T18:44:44.475Z,99.90
2019-05-05T18:47:18.154Z,99.90
2019-05-05T18:49:47.320Z,99.90
2019-05-05T18:52:16.094Z,99.90
2019-05-05T18:54:43.877Z,99.90
2019-05-05T18:57:11.558Z,99.90
2019-05-05T18:59:39.471Z,99.90
2019-05-05T19:02:14.460Z,99.90
2019-05-05T19:04:51.401Z,99.90
2019-05-05T19:07:34.126Z,99.90
2019-05-05T19:10:03.866Z,99.90
2019-05-05T19:12:31.201Z,99.90
2019-05-05T19:14:58.809Z,99.90
2019-05-05T19:17:28.853Z,99.90
2019-05-05T19:20:00.372Z,99.90
2019-05-05T19:22:31.449Z,99.90
2019-05-05T19:25:18.541Z,99.90
2019-05-05T19:27:46.588Z,99.90
2019-05-05T19:30:14.732Z,99.90
2019-05-05T19:32:43.730Z,99.90
2019-05-05T19:35:11.757Z,99.90
2019-05-05T19:37:39.138Z,99.90
2019-05-05T19:40:07.117Z,99.90
2019-05-05T19:42:34.969Z,99.90
2019-05-05T19:45:04.254Z,99.90
2019-05-05T19:47:34.008Z,99.90
2019-05-05T19:50:08.630Z,99.90
2019-05-05T19:52:36.047Z,99.90
2019-05-05T19:55:04.931Z,99.90
2019-05-05T19:57:35.822Z,99.90
2019-05-05T20:00:04.068Z,99.90
2019-05-05T20:02:34.045Z,99.90
2019-05-05T20:05:01.458Z,99.90
2019-05-05T20:07:28.875Z,99.90
2019-05-05T20:09:57.258Z,99.90
2019-05-05T20:12:25.278Z,99.90
2019-05-05T20:14:54.387Z,99.90
2019-05-05T20:17:33.808Z,99.90
2019-05-05T20:20:04.325Z,99.00
2019-05-05T20:22:31.342Z,98.60
2019-05-05T20:24:59.095Z,98.50
2019-05-05T20:27:26.592Z,98.40
2019-05-05T20:29:54.130Z,98.50
2019-05-05T20:32:31.447Z,98.50
2019-05-05T20:35:24.486Z,98.00
2019-05-05T20:38:00.256Z,97.90
2019-05-05T20:40:30.925Z,96.80
2019-05-05T20:42:58.399Z,96.90
2019-05-05T20:45:29.499Z,97.20
2019-05-05T20:47:57.037Z,96.40
2019-05-05T20:50:24.823Z,96.20
2019-05-05T20:52:53.582Z,95.80
2019-05-05T20:55:21.097Z,95.50
2019-05-05T20:57:48.569Z,95.20
2019-05-05T21:00:17.526Z,95.40
2019-05-05T21:02:45.234Z,95.20
2019-05-05T21:05:14.581Z,95.50
2019-05-05T21:07:44.302Z,95.10
2019-05-05T21:10:14.422Z,95.60
2019-05-05T21:12:44.864Z,95.40
2019-05-05T21:15:13.130Z,95.50
2019-05-05T21:17:40.872Z,95.50
2019-05-05T21:20:08.658Z,95.30
2019-05-05T21:22:58.516Z,95.30
2019-05-05T21:25:38.189Z,95.30
2019-05-05T21:28:05.873Z,95.30
2019-05-05T21:30:33.800Z,95.10
2019-05-05T21:33:01.258Z,95.30
2019-05-05T21:35:29.288Z,95.50
2019-05-05T21:37:56.973Z,96.00
2019-05-05T21:40:26.059Z,96.20
2019-05-05T21:42:54.249Z,96.60
2019-05-05T21:45:23.471Z,96.80
2019-05-05T21:47:54.802Z,97.10
2019-05-05T21:50:28.347Z,97.20
2019-05-05T21:53:04.665Z,97.60
2019-05-05T21:55:39.423Z,97.80
2019-05-05T21:58:14.781Z,98.20
2019-05-05T22:01:01.205Z,98.40
2019-05-05T22:03:35.822Z,98.70
2019-05-05T22:06:03.824Z,98.80
2019-05-05T22:08:34.846Z,98.90
2019-05-05T22:11:03.910Z,99.10
2019-05-05T22:13:31.768Z,99.10
2019-05-05T22:15:59.427Z,99.20
2019-05-05T22:18:26.821Z,99.30
2019-05-05T22:21:00.650Z,97.80
2019-05-05T22:23:28.182Z,98.10
2019-05-05T22:25:57.237Z,98.80
2019-05-05T22:28:26.429Z,99.50
2019-05-05T22:30:55.541Z,99.70
2019-05-05T22:33:24.655Z,98.00
2019-05-05T22:35:52.412Z,98.10
2019-05-05T22:38:19.852Z,98.30
2019-05-05T22:40:47.417Z,98.40
2019-05-05T22:43:15.002Z,98.50
2019-05-05T22:45:45.070Z,97.90
2019-05-05T22:48:14.370Z,97.70
2019-05-05T22:50:43.644Z,97.70
2019-05-05T22:53:11.116Z,98.30
2019-05-05T22:55:38.476Z,98.20
2019-05-05T22:58:05.947Z,98.00
2019-05-05T23:00:34.792Z,98.30
2019-05-05T23:03:10.911Z,98.60
2019-05-05T23:05:46.969Z,98.80
2019-05-05T23:08:14.438Z,98.90
2019-05-05T23:10:43.752Z,99.10
2019-05-05T23:13:13.541Z,99.00
2019-05-05T23:15:47.509Z,99.10
2019-05-05T23:18:20.091Z,99.30
2019-05-05T23:21:07.232Z,99.40
2019-05-05T23:23:57.152Z,99.70
2019-05-05T23:26:26.106Z,99.90
2019-05-05T23:28:54.571Z,99.80
2019-05-05T23:31:24.136Z,99.80
2019-05-05T23:33:51.756Z,99.60
2019-05-05T23:36:19.318Z,99.50
2019-05-05T23:38:46.933Z,99.50
2019-05-05T23:41:14.686Z,99.40
2019-05-05T23:43:42.328Z,99.40
2019-05-05T23:46:09.959Z,99.40
2019-05-05T23:48:37.517Z,99.50
2019-05-05T23:51:05.050Z,99.50
2019-05-05T23:53:34.563Z,99.50
2019-05-05T23:56:03.858Z,99.70
2019-05-05T23:58:31.021Z,99.80
